<?xml version="1.0" encoding="UTF-8"?>
<gpx creator="WikiLoc - http://www.wikiloc.com" version="1.1" xmlns="http://www.topografix.com/GPX/1/1">
    <wpt lat="39.188651" lon="-6.159811">
        <ele>413.000000</ele>
        <time>2010-04-17T11:30:37.925+02:00</time>
        <name>CARTEL INFORMATIVO</name>
        <cmt/>
        <desc/>
    </wpt>
    <wpt lat="39.193158" lon="-6.161860">
        <ele>415.000000</ele>
        <time>2010-04-17T11:30:37.925+02:00</time>
        <name>PIEDRA DEL DEDO MEÑIQUE</name>
        <cmt/>
        <desc/>
    </wpt>
    <wpt lat="39.195869" lon="-6.150305">
        <ele>508.000000</ele>
        <time>2010-04-17T11:30:37.925+02:00</time>
        <name>ZONA DE MOLINOS</name>
        <cmt/>
        <desc/>
    </wpt>
    <wpt lat="39.214733" lon="-6.145445">
        <ele>766.000000</ele>
        <time>2010-04-17T11:30:37.925+02:00</time>
        <name>BOSQUE DE CASTAÑOS</name>
        <cmt/>
        <desc/>
    </wpt>
    <wpt lat="39.224732" lon="-6.155058">
        <ele>731.000000</ele>
        <time>2010-04-17T11:30:37.925+02:00</time>
        <name>CASTILLO DE MONTANCHEZ</name>
        <cmt/>
        <desc/>
    </wpt>
    <wpt lat="39.222463" lon="-6.159950">
        <ele>616.000000</ele>
        <time>2010-04-17T11:30:37.925+02:00</time>
        <name>CENTRO DE EDUCACION MEDIOAMBIENTAL 'LA FONTANITA'</name>
        <cmt/>
        <desc/>
    </wpt>
    <wpt lat="39.222288" lon="-6.161098">
        <ele>607.000000</ele>
        <time>2010-04-17T11:30:37.925+02:00</time>
        <name>OJO A ESTE CRUCE. GIRAR A LA DERECHA</name>
        <cmt/>
        <desc/>
    </wpt>
    <wpt lat="39.205123" lon="-6.173308">
        <ele>418.000000</ele>
        <time>2010-04-17T11:30:37.925+02:00</time>
        <name>OJO CRUCE A LA IZQUIERDA QUE NO SE VE BIEN.</name>
        <cmt/>
        <desc/>
    </wpt>
    <wpt lat="39.190398" lon="-6.169703">
        <ele>380.000000</ele>
        <time>2010-04-17T11:30:37.925+02:00</time>
        <name>CRUCE A LA IZQUIERDA POR LA CARRETERA</name>
        <cmt/>
        <desc/>
    </wpt>
    <trk>
        <name>RUTA DE LOS MOLINOS EN ARROYOMOLINOS DE MONTANCHEZ.</name>
        <cmt>Bonita ruta que da comienza en la localidad cacereña de Arroyomolinos de Montanchez, en la que se puede visitar mas de una treintena de molinos harineros, pudiendo contemplar tambien lugares tan pintorescos como la piedra del dedo meñique, un precioso bosque de castaños o la localidad de Montanchez.

Para más información sobre esta ruta, aquí teneis el enlace a mi blog:

http://senderbike.blogspot.com/2009/12/ruta-de-los-molinos-en-arroyomolinos.html</cmt>
        <desc>Bonita ruta que da comienza en la localidad cacereña de Arroyomolinos de Montanchez, en la que se puede visitar mas de una treintena de molinos harineros, pudiendo contemplar tambien lugares tan pintorescos como la piedra del dedo meñique, un precioso bosque de castaños o la localidad de Montanchez.

Para más información sobre esta ruta, aquí teneis el enlace a mi blog:

http://senderbike.blogspot.com/2009/12/ruta-de-los-molinos-en-arroyomolinos.html</desc>
        <trkseg>
            <trkpt lat="39.185491" lon="-6.162193">
                <ele>391.000000</ele>
                <time>2011-12-19T12:25:32.430+01:00</time>
            </trkpt>
            <trkpt lat="39.186231" lon="-6.162182">
                <ele>394.000000</ele>
                <time>2011-12-19T12:26:12.430+01:00</time>
            </trkpt>
            <trkpt lat="39.186614" lon="-6.161989">
                <ele>398.000000</ele>
                <time>2011-12-19T12:27:32.430+01:00</time>
            </trkpt>
            <trkpt lat="39.187612" lon="-6.161753">
                <ele>406.000000</ele>
                <time>2011-12-19T12:29:32.430+01:00</time>
            </trkpt>
            <trkpt lat="39.188435" lon="-6.160444">
                <ele>412.000000</ele>
                <time>2011-12-19T12:32:12.430+01:00</time>
            </trkpt>
            <trkpt lat="39.188560" lon="-6.160176">
                <ele>412.000000</ele>
                <time>2011-12-19T12:35:32.430+01:00</time>
            </trkpt>
            <trkpt lat="39.188776" lon="-6.159865">
                <ele>413.000000</ele>
                <time>2011-12-19T12:39:32.430+01:00</time>
            </trkpt>
            <trkpt lat="39.188992" lon="-6.159618">
                <ele>413.000000</ele>
                <time>2011-12-19T12:44:12.430+01:00</time>
            </trkpt>
            <trkpt lat="39.189425" lon="-6.158878">
                <ele>416.000000</ele>
                <time>2011-12-19T12:49:32.430+01:00</time>
            </trkpt>
            <trkpt lat="39.189857" lon="-6.159189">
                <ele>416.000000</ele>
                <time>2011-12-19T12:55:32.430+01:00</time>
            </trkpt>
            <trkpt lat="39.190231" lon="-6.159543">
                <ele>417.000000</ele>
                <time>2011-12-19T13:02:12.430+01:00</time>
            </trkpt>
            <trkpt lat="39.190389" lon="-6.159832">
                <ele>416.000000</ele>
                <time>2011-12-19T13:09:32.430+01:00</time>
            </trkpt>
            <trkpt lat="39.190589" lon="-6.159714">
                <ele>416.000000</ele>
                <time>2011-12-19T13:17:32.430+01:00</time>
            </trkpt>
            <trkpt lat="39.190764" lon="-6.159908">
                <ele>417.000000</ele>
                <time>2011-12-19T13:26:12.430+01:00</time>
            </trkpt>
            <trkpt lat="39.191246" lon="-6.159929">
                <ele>417.000000</ele>
                <time>2011-12-19T13:35:32.430+01:00</time>
            </trkpt>
            <trkpt lat="39.191637" lon="-6.160423">
                <ele>421.000000</ele>
                <time>2011-12-19T13:45:32.430+01:00</time>
            </trkpt>
            <trkpt lat="39.192127" lon="-6.160744">
                <ele>421.000000</ele>
                <time>2011-12-19T13:56:12.430+01:00</time>
            </trkpt>
            <trkpt lat="39.192543" lon="-6.161098">
                <ele>420.000000</ele>
                <time>2011-12-19T14:07:32.430+01:00</time>
            </trkpt>
            <trkpt lat="39.192867" lon="-6.161367">
                <ele>418.000000</ele>
                <time>2011-12-19T14:19:32.430+01:00</time>
            </trkpt>
            <trkpt lat="39.192992" lon="-6.161828">
                <ele>415.000000</ele>
                <time>2011-12-19T14:32:12.430+01:00</time>
            </trkpt>
            <trkpt lat="39.193108" lon="-6.162021">
                <ele>415.000000</ele>
                <time>2011-12-19T14:45:32.430+01:00</time>
            </trkpt>
            <trkpt lat="39.193067" lon="-6.161742">
                <ele>417.000000</ele>
                <time>2011-12-19T14:59:32.430+01:00</time>
            </trkpt>
            <trkpt lat="39.192925" lon="-6.161410">
                <ele>419.000000</ele>
                <time>2011-12-19T15:14:12.430+01:00</time>
            </trkpt>
            <trkpt lat="39.192526" lon="-6.161013">
                <ele>420.000000</ele>
                <time>2011-12-19T15:29:32.430+01:00</time>
            </trkpt>
            <trkpt lat="39.192169" lon="-6.160702">
                <ele>421.000000</ele>
                <time>2011-12-19T15:45:32.430+01:00</time>
            </trkpt>
            <trkpt lat="39.191653" lon="-6.160358">
                <ele>420.000000</ele>
                <time>2011-12-19T16:02:12.430+01:00</time>
            </trkpt>
            <trkpt lat="39.191346" lon="-6.159950">
                <ele>418.000000</ele>
                <time>2011-12-19T16:19:32.430+01:00</time>
            </trkpt>
            <trkpt lat="39.190805" lon="-6.159865">
                <ele>417.000000</ele>
                <time>2011-12-19T16:37:32.430+01:00</time>
            </trkpt>
            <trkpt lat="39.190630" lon="-6.159682">
                <ele>416.000000</ele>
                <time>2011-12-19T16:56:12.430+01:00</time>
            </trkpt>
            <trkpt lat="39.190423" lon="-6.159714">
                <ele>416.000000</ele>
                <time>2011-12-19T17:15:32.430+01:00</time>
            </trkpt>
            <trkpt lat="39.190298" lon="-6.159521">
                <ele>417.000000</ele>
                <time>2011-12-19T17:35:32.430+01:00</time>
            </trkpt>
            <trkpt lat="39.189475" lon="-6.158835">
                <ele>416.000000</ele>
                <time>2011-12-19T17:56:12.430+01:00</time>
            </trkpt>
            <trkpt lat="39.189558" lon="-6.158642">
                <ele>418.000000</ele>
                <time>2011-12-19T18:17:32.430+01:00</time>
            </trkpt>
            <trkpt lat="39.189857" lon="-6.158363">
                <ele>421.000000</ele>
                <time>2011-12-19T18:39:32.430+01:00</time>
            </trkpt>
            <trkpt lat="39.190198" lon="-6.157944">
                <ele>425.000000</ele>
                <time>2011-12-19T19:02:12.430+01:00</time>
            </trkpt>
            <trkpt lat="39.190606" lon="-6.157397">
                <ele>426.000000</ele>
                <time>2011-12-19T19:25:32.430+01:00</time>
            </trkpt>
            <trkpt lat="39.190938" lon="-6.156946">
                <ele>428.000000</ele>
                <time>2011-12-19T19:49:32.430+01:00</time>
            </trkpt>
            <trkpt lat="39.191254" lon="-6.156464">
                <ele>431.000000</ele>
                <time>2011-12-19T20:14:12.430+01:00</time>
            </trkpt>
            <trkpt lat="39.191612" lon="-6.156185">
                <ele>435.000000</ele>
                <time>2011-12-19T20:39:32.430+01:00</time>
            </trkpt>
            <trkpt lat="39.192086" lon="-6.155316">
                <ele>441.000000</ele>
                <time>2011-12-19T21:05:32.430+01:00</time>
            </trkpt>
            <trkpt lat="39.192269" lon="-6.154865">
                <ele>443.000000</ele>
                <time>2011-12-19T21:32:12.430+01:00</time>
            </trkpt>
            <trkpt lat="39.192260" lon="-6.154618">
                <ele>444.000000</ele>
                <time>2011-12-19T21:59:32.430+01:00</time>
            </trkpt>
            <trkpt lat="39.192427" lon="-6.154457">
                <ele>446.000000</ele>
                <time>2011-12-19T22:27:32.430+01:00</time>
            </trkpt>
            <trkpt lat="39.192427" lon="-6.154243">
                <ele>448.000000</ele>
                <time>2011-12-19T22:56:12.430+01:00</time>
            </trkpt>
            <trkpt lat="39.193158" lon="-6.153020">
                <ele>453.000000</ele>
                <time>2011-12-19T23:25:32.430+01:00</time>
            </trkpt>
            <trkpt lat="39.193150" lon="-6.152591">
                <ele>454.000000</ele>
                <time>2011-12-19T23:55:32.430+01:00</time>
            </trkpt>
            <trkpt lat="39.193025" lon="-6.152129">
                <ele>455.000000</ele>
                <time>2011-12-20T00:26:12.430+01:00</time>
            </trkpt>
            <trkpt lat="39.192884" lon="-6.152011">
                <ele>457.000000</ele>
                <time>2011-12-20T00:57:32.430+01:00</time>
            </trkpt>
            <trkpt lat="39.192967" lon="-6.151754">
                <ele>461.000000</ele>
                <time>2011-12-20T01:29:32.430+01:00</time>
            </trkpt>
            <trkpt lat="39.193050" lon="-6.151174">
                <ele>474.000000</ele>
                <time>2011-12-20T02:02:12.430+01:00</time>
            </trkpt>
            <trkpt lat="39.193399" lon="-6.150852">
                <ele>483.000000</ele>
                <time>2011-12-20T02:35:32.430+01:00</time>
            </trkpt>
            <trkpt lat="39.193915" lon="-6.150681">
                <ele>497.000000</ele>
                <time>2011-12-20T03:09:32.430+01:00</time>
            </trkpt>
            <trkpt lat="39.194455" lon="-6.150670">
                <ele>502.000000</ele>
                <time>2011-12-20T03:44:12.430+01:00</time>
            </trkpt>
            <trkpt lat="39.194838" lon="-6.150509">
                <ele>503.000000</ele>
                <time>2011-12-20T04:19:32.430+01:00</time>
            </trkpt>
            <trkpt lat="39.195096" lon="-6.150305">
                <ele>510.000000</ele>
                <time>2011-12-20T04:55:32.430+01:00</time>
            </trkpt>
            <trkpt lat="39.195578" lon="-6.150016">
                <ele>515.000000</ele>
                <time>2011-12-20T05:32:12.430+01:00</time>
            </trkpt>
            <trkpt lat="39.195902" lon="-6.149833">
                <ele>522.000000</ele>
                <time>2011-12-20T06:09:32.430+01:00</time>
            </trkpt>
            <trkpt lat="39.196285" lon="-6.149694">
                <ele>520.000000</ele>
                <time>2011-12-20T06:47:32.430+01:00</time>
            </trkpt>
            <trkpt lat="39.196576" lon="-6.149565">
                <ele>526.000000</ele>
                <time>2011-12-20T07:26:12.430+01:00</time>
            </trkpt>
            <trkpt lat="39.197058" lon="-6.149415">
                <ele>528.000000</ele>
                <time>2011-12-20T08:05:32.430+01:00</time>
            </trkpt>
            <trkpt lat="39.197515" lon="-6.149350">
                <ele>537.000000</ele>
                <time>2011-12-20T08:45:32.430+01:00</time>
            </trkpt>
            <trkpt lat="39.197931" lon="-6.148996">
                <ele>553.000000</ele>
                <time>2011-12-20T09:26:12.430+01:00</time>
            </trkpt>
            <trkpt lat="39.198006" lon="-6.148685">
                <ele>560.000000</ele>
                <time>2011-12-20T10:07:32.430+01:00</time>
            </trkpt>
            <trkpt lat="39.198039" lon="-6.148546">
                <ele>560.000000</ele>
                <time>2011-12-20T10:49:32.430+01:00</time>
            </trkpt>
            <trkpt lat="39.198571" lon="-6.148460">
                <ele>569.000000</ele>
                <time>2011-12-20T11:32:12.430+01:00</time>
            </trkpt>
            <trkpt lat="39.198979" lon="-6.148331">
                <ele>569.000000</ele>
                <time>2011-12-20T12:15:32.430+01:00</time>
            </trkpt>
            <trkpt lat="39.199270" lon="-6.148192">
                <ele>579.000000</ele>
                <time>2011-12-20T12:59:32.430+01:00</time>
            </trkpt>
            <trkpt lat="39.199561" lon="-6.148278">
                <ele>573.000000</ele>
                <time>2011-12-20T13:44:12.430+01:00</time>
            </trkpt>
            <trkpt lat="39.199935" lon="-6.148138">
                <ele>585.000000</ele>
                <time>2011-12-20T14:29:32.430+01:00</time>
            </trkpt>
            <trkpt lat="39.200342" lon="-6.147966">
                <ele>589.000000</ele>
                <time>2011-12-20T15:15:32.430+01:00</time>
            </trkpt>
            <trkpt lat="39.200583" lon="-6.147784">
                <ele>599.000000</ele>
                <time>2011-12-20T16:02:12.430+01:00</time>
            </trkpt>
            <trkpt lat="39.200791" lon="-6.147591">
                <ele>609.000000</ele>
                <time>2011-12-20T16:49:32.430+01:00</time>
            </trkpt>
            <trkpt lat="39.201041" lon="-6.147344">
                <ele>617.000000</ele>
                <time>2011-12-20T17:37:32.430+01:00</time>
            </trkpt>
            <trkpt lat="39.201373" lon="-6.147248">
                <ele>615.000000</ele>
                <time>2011-12-20T18:26:12.430+01:00</time>
            </trkpt>
            <trkpt lat="39.201731" lon="-6.147430">
                <ele>607.000000</ele>
                <time>2011-12-20T19:15:32.430+01:00</time>
            </trkpt>
            <trkpt lat="39.202013" lon="-6.147301">
                <ele>611.000000</ele>
                <time>2011-12-20T20:05:32.430+01:00</time>
            </trkpt>
            <trkpt lat="39.202329" lon="-6.147151">
                <ele>610.000000</ele>
                <time>2011-12-20T20:56:12.430+01:00</time>
            </trkpt>
            <trkpt lat="39.202604" lon="-6.146883">
                <ele>611.000000</ele>
                <time>2011-12-20T21:47:32.430+01:00</time>
            </trkpt>
            <trkpt lat="39.202712" lon="-6.146507">
                <ele>614.000000</ele>
                <time>2011-12-20T22:39:32.430+01:00</time>
            </trkpt>
            <trkpt lat="39.202820" lon="-6.145982">
                <ele>617.000000</ele>
                <time>2011-12-20T23:32:12.430+01:00</time>
            </trkpt>
            <trkpt lat="39.203003" lon="-6.146110">
                <ele>621.000000</ele>
                <time>2011-12-21T00:25:32.430+01:00</time>
            </trkpt>
            <trkpt lat="39.203094" lon="-6.145949">
                <ele>625.000000</ele>
                <time>2011-12-21T01:19:32.430+01:00</time>
            </trkpt>
            <trkpt lat="39.203044" lon="-6.145627">
                <ele>630.000000</ele>
                <time>2011-12-21T02:14:12.430+01:00</time>
            </trkpt>
            <trkpt lat="39.202878" lon="-6.145273">
                <ele>632.000000</ele>
                <time>2011-12-21T03:09:32.430+01:00</time>
            </trkpt>
            <trkpt lat="39.203086" lon="-6.145402">
                <ele>635.000000</ele>
                <time>2011-12-21T04:05:32.430+01:00</time>
            </trkpt>
            <trkpt lat="39.203053" lon="-6.145166">
                <ele>635.000000</ele>
                <time>2011-12-21T05:02:12.430+01:00</time>
            </trkpt>
            <trkpt lat="39.202870" lon="-6.144844">
                <ele>644.000000</ele>
                <time>2011-12-21T05:59:32.430+01:00</time>
            </trkpt>
            <trkpt lat="39.202895" lon="-6.144533">
                <ele>649.000000</ele>
                <time>2011-12-21T06:57:32.430+01:00</time>
            </trkpt>
            <trkpt lat="39.203094" lon="-6.144683">
                <ele>648.000000</ele>
                <time>2011-12-21T07:56:12.430+01:00</time>
            </trkpt>
            <trkpt lat="39.203061" lon="-6.144372">
                <ele>654.000000</ele>
                <time>2011-12-21T08:55:32.430+01:00</time>
            </trkpt>
            <trkpt lat="39.203244" lon="-6.144254">
                <ele>668.000000</ele>
                <time>2011-12-21T09:55:32.430+01:00</time>
            </trkpt>
            <trkpt lat="39.203302" lon="-6.144522">
                <ele>664.000000</ele>
                <time>2011-12-21T10:56:12.430+01:00</time>
            </trkpt>
            <trkpt lat="39.203526" lon="-6.144769">
                <ele>669.000000</ele>
                <time>2011-12-21T11:57:32.430+01:00</time>
            </trkpt>
            <trkpt lat="39.203925" lon="-6.144823">
                <ele>680.000000</ele>
                <time>2011-12-21T12:59:32.430+01:00</time>
            </trkpt>
            <trkpt lat="39.204325" lon="-6.144866">
                <ele>690.000000</ele>
                <time>2011-12-21T14:02:12.430+01:00</time>
            </trkpt>
            <trkpt lat="39.205314" lon="-6.145027">
                <ele>713.000000</ele>
                <time>2011-12-21T15:05:32.430+01:00</time>
            </trkpt>
            <trkpt lat="39.205247" lon="-6.145445">
                <ele>710.000000</ele>
                <time>2011-12-21T16:09:32.430+01:00</time>
            </trkpt>
            <trkpt lat="39.205206" lon="-6.145917">
                <ele>711.000000</ele>
                <time>2011-12-21T17:14:12.430+01:00</time>
            </trkpt>
            <trkpt lat="39.205098" lon="-6.146164">
                <ele>703.000000</ele>
                <time>2011-12-21T18:19:32.430+01:00</time>
            </trkpt>
            <trkpt lat="39.204931" lon="-6.146518">
                <ele>704.000000</ele>
                <time>2011-12-21T19:25:32.430+01:00</time>
            </trkpt>
            <trkpt lat="39.205081" lon="-6.146947">
                <ele>704.000000</ele>
                <time>2011-12-21T20:32:12.430+01:00</time>
            </trkpt>
            <trkpt lat="39.205272" lon="-6.147366">
                <ele>708.000000</ele>
                <time>2011-12-21T21:39:32.430+01:00</time>
            </trkpt>
            <trkpt lat="39.205572" lon="-6.147848">
                <ele>715.000000</ele>
                <time>2011-12-21T22:47:32.430+01:00</time>
            </trkpt>
            <trkpt lat="39.205788" lon="-6.148460">
                <ele>721.000000</ele>
                <time>2011-12-21T23:56:12.430+01:00</time>
            </trkpt>
            <trkpt lat="39.206503" lon="-6.148578">
                <ele>731.000000</ele>
                <time>2011-12-22T01:05:32.430+01:00</time>
            </trkpt>
            <trkpt lat="39.207068" lon="-6.148428">
                <ele>737.000000</ele>
                <time>2011-12-22T02:15:32.430+01:00</time>
            </trkpt>
            <trkpt lat="39.207708" lon="-6.148063">
                <ele>741.000000</ele>
                <time>2011-12-22T03:26:12.430+01:00</time>
            </trkpt>
            <trkpt lat="39.208165" lon="-6.147945">
                <ele>742.000000</ele>
                <time>2011-12-22T04:37:32.430+01:00</time>
            </trkpt>
            <trkpt lat="39.208672" lon="-6.148031">
                <ele>743.000000</ele>
                <time>2011-12-22T05:49:32.430+01:00</time>
            </trkpt>
            <trkpt lat="39.209238" lon="-6.148127">
                <ele>742.000000</ele>
                <time>2011-12-22T07:02:12.430+01:00</time>
            </trkpt>
            <trkpt lat="39.209678" lon="-6.148106">
                <ele>742.000000</ele>
                <time>2011-12-22T08:15:32.430+01:00</time>
            </trkpt>
            <trkpt lat="39.210294" lon="-6.148267">
                <ele>739.000000</ele>
                <time>2011-12-22T09:29:32.430+01:00</time>
            </trkpt>
            <trkpt lat="39.210618" lon="-6.147913">
                <ele>742.000000</ele>
                <time>2011-12-22T10:44:12.430+01:00</time>
            </trkpt>
            <trkpt lat="39.210817" lon="-6.147666">
                <ele>740.000000</ele>
                <time>2011-12-22T11:59:32.430+01:00</time>
            </trkpt>
            <trkpt lat="39.211050" lon="-6.147258">
                <ele>743.000000</ele>
                <time>2011-12-22T13:15:32.430+01:00</time>
            </trkpt>
            <trkpt lat="39.211241" lon="-6.147076">
                <ele>747.000000</ele>
                <time>2011-12-22T14:32:12.430+01:00</time>
            </trkpt>
            <trkpt lat="39.211723" lon="-6.147140">
                <ele>743.000000</ele>
                <time>2011-12-22T15:49:32.430+01:00</time>
            </trkpt>
            <trkpt lat="39.212222" lon="-6.147237">
                <ele>742.000000</ele>
                <time>2011-12-22T17:07:32.430+01:00</time>
            </trkpt>
            <trkpt lat="39.212588" lon="-6.146958">
                <ele>745.000000</ele>
                <time>2011-12-22T18:26:12.430+01:00</time>
            </trkpt>
            <trkpt lat="39.212954" lon="-6.146722">
                <ele>746.000000</ele>
                <time>2011-12-22T19:45:32.430+01:00</time>
            </trkpt>
            <trkpt lat="39.213336" lon="-6.146572">
                <ele>744.000000</ele>
                <time>2011-12-22T21:05:32.430+01:00</time>
            </trkpt>
            <trkpt lat="39.213677" lon="-6.146314">
                <ele>749.000000</ele>
                <time>2011-12-22T22:26:12.430+01:00</time>
            </trkpt>
            <trkpt lat="39.214225" lon="-6.146303">
                <ele>748.000000</ele>
                <time>2011-12-22T23:47:32.430+01:00</time>
            </trkpt>
            <trkpt lat="39.214741" lon="-6.146164">
                <ele>752.000000</ele>
                <time>2011-12-23T01:09:32.430+01:00</time>
            </trkpt>
            <trkpt lat="39.215314" lon="-6.145917">
                <ele>752.000000</ele>
                <time>2011-12-23T02:32:12.430+01:00</time>
            </trkpt>
            <trkpt lat="39.215747" lon="-6.145949">
                <ele>750.000000</ele>
                <time>2011-12-23T03:55:32.430+01:00</time>
            </trkpt>
            <trkpt lat="39.216121" lon="-6.145928">
                <ele>751.000000</ele>
                <time>2011-12-23T05:19:32.430+01:00</time>
            </trkpt>
            <trkpt lat="39.216478" lon="-6.145778">
                <ele>752.000000</ele>
                <time>2011-12-23T06:44:12.430+01:00</time>
            </trkpt>
            <trkpt lat="39.216728" lon="-6.145552">
                <ele>754.000000</ele>
                <time>2011-12-23T08:09:32.430+01:00</time>
            </trkpt>
            <trkpt lat="39.217060" lon="-6.145349">
                <ele>755.000000</ele>
                <time>2011-12-23T09:35:32.430+01:00</time>
            </trkpt>
            <trkpt lat="39.217442" lon="-6.145198">
                <ele>751.000000</ele>
                <time>2011-12-23T11:02:12.430+01:00</time>
            </trkpt>
            <trkpt lat="39.217683" lon="-6.144973">
                <ele>752.000000</ele>
                <time>2011-12-23T12:29:32.430+01:00</time>
            </trkpt>
            <trkpt lat="39.217933" lon="-6.145145">
                <ele>749.000000</ele>
                <time>2011-12-23T13:57:32.430+01:00</time>
            </trkpt>
            <trkpt lat="39.218432" lon="-6.145198">
                <ele>749.000000</ele>
                <time>2011-12-23T15:26:12.430+01:00</time>
            </trkpt>
            <trkpt lat="39.218722" lon="-6.145359">
                <ele>750.000000</ele>
                <time>2011-12-23T16:55:32.430+01:00</time>
            </trkpt>
            <trkpt lat="39.219080" lon="-6.145767">
                <ele>747.000000</ele>
                <time>2011-12-23T18:25:32.430+01:00</time>
            </trkpt>
            <trkpt lat="39.219471" lon="-6.146078">
                <ele>745.000000</ele>
                <time>2011-12-23T19:56:12.430+01:00</time>
            </trkpt>
            <trkpt lat="39.219620" lon="-6.146475">
                <ele>742.000000</ele>
                <time>2011-12-23T21:27:32.430+01:00</time>
            </trkpt>
            <trkpt lat="39.220185" lon="-6.146239">
                <ele>735.000000</ele>
                <time>2011-12-23T22:59:32.430+01:00</time>
            </trkpt>
            <trkpt lat="39.220601" lon="-6.146379">
                <ele>732.000000</ele>
                <time>2011-12-24T00:32:12.430+01:00</time>
            </trkpt>
            <trkpt lat="39.221091" lon="-6.146454">
                <ele>732.000000</ele>
                <time>2011-12-24T02:05:32.430+01:00</time>
            </trkpt>
            <trkpt lat="39.221507" lon="-6.146690">
                <ele>729.000000</ele>
                <time>2011-12-24T03:39:32.430+01:00</time>
            </trkpt>
            <trkpt lat="39.222014" lon="-6.146711">
                <ele>728.000000</ele>
                <time>2011-12-24T05:14:12.430+01:00</time>
            </trkpt>
            <trkpt lat="39.222496" lon="-6.146969">
                <ele>723.000000</ele>
                <time>2011-12-24T06:49:32.430+01:00</time>
            </trkpt>
            <trkpt lat="39.222828" lon="-6.147280">
                <ele>722.000000</ele>
                <time>2011-12-24T08:25:32.430+01:00</time>
            </trkpt>
            <trkpt lat="39.222845" lon="-6.147419">
                <ele>722.000000</ele>
                <time>2011-12-24T10:02:12.430+01:00</time>
            </trkpt>
            <trkpt lat="39.222646" lon="-6.148438">
                <ele>723.000000</ele>
                <time>2011-12-24T11:39:32.430+01:00</time>
            </trkpt>
            <trkpt lat="39.222513" lon="-6.148696">
                <ele>724.000000</ele>
                <time>2011-12-24T13:17:32.430+01:00</time>
            </trkpt>
            <trkpt lat="39.222504" lon="-6.150198">
                <ele>711.000000</ele>
                <time>2011-12-24T14:56:12.430+01:00</time>
            </trkpt>
            <trkpt lat="39.222496" lon="-6.150466">
                <ele>709.000000</ele>
                <time>2011-12-24T16:35:32.430+01:00</time>
            </trkpt>
            <trkpt lat="39.223011" lon="-6.151013">
                <ele>708.000000</ele>
                <time>2011-12-24T18:15:32.430+01:00</time>
            </trkpt>
            <trkpt lat="39.223460" lon="-6.151528">
                <ele>706.000000</ele>
                <time>2011-12-24T19:56:12.430+01:00</time>
            </trkpt>
            <trkpt lat="39.223884" lon="-6.152086">
                <ele>706.000000</ele>
                <time>2011-12-24T21:37:32.430+01:00</time>
            </trkpt>
            <trkpt lat="39.224308" lon="-6.152408">
                <ele>709.000000</ele>
                <time>2011-12-24T23:19:32.430+01:00</time>
            </trkpt>
            <trkpt lat="39.224790" lon="-6.152687">
                <ele>711.000000</ele>
                <time>2011-12-25T01:02:12.430+01:00</time>
            </trkpt>
            <trkpt lat="39.224416" lon="-6.152934">
                <ele>710.000000</ele>
                <time>2011-12-25T02:45:32.430+01:00</time>
            </trkpt>
            <trkpt lat="39.224200" lon="-6.153427">
                <ele>707.000000</ele>
                <time>2011-12-25T04:29:32.430+01:00</time>
            </trkpt>
            <trkpt lat="39.223876" lon="-6.154060">
                <ele>700.000000</ele>
                <time>2011-12-25T06:14:12.430+01:00</time>
            </trkpt>
            <trkpt lat="39.223635" lon="-6.154983">
                <ele>681.000000</ele>
                <time>2011-12-25T07:59:32.430+01:00</time>
            </trkpt>
            <trkpt lat="39.223493" lon="-6.155541">
                <ele>673.000000</ele>
                <time>2011-12-25T09:45:32.430+01:00</time>
            </trkpt>
            <trkpt lat="39.223435" lon="-6.155981">
                <ele>661.000000</ele>
                <time>2011-12-25T11:32:12.430+01:00</time>
            </trkpt>
            <trkpt lat="39.223560" lon="-6.156324">
                <ele>659.000000</ele>
                <time>2011-12-25T13:19:32.430+01:00</time>
            </trkpt>
            <trkpt lat="39.223834" lon="-6.156861">
                <ele>651.000000</ele>
                <time>2011-12-25T15:07:32.430+01:00</time>
            </trkpt>
            <trkpt lat="39.223685" lon="-6.157011">
                <ele>648.000000</ele>
                <time>2011-12-25T16:56:12.430+01:00</time>
            </trkpt>
            <trkpt lat="39.223668" lon="-6.157429">
                <ele>638.000000</ele>
                <time>2011-12-25T18:45:32.430+01:00</time>
            </trkpt>
            <trkpt lat="39.223493" lon="-6.158556">
                <ele>621.000000</ele>
                <time>2011-12-25T20:35:32.430+01:00</time>
            </trkpt>
            <trkpt lat="39.223261" lon="-6.158845">
                <ele>621.000000</ele>
                <time>2011-12-25T22:26:12.430+01:00</time>
            </trkpt>
            <trkpt lat="39.223119" lon="-6.159081">
                <ele>620.000000</ele>
                <time>2011-12-26T00:17:32.430+01:00</time>
            </trkpt>
            <trkpt lat="39.223053" lon="-6.159511">
                <ele>616.000000</ele>
                <time>2011-12-26T02:09:32.430+01:00</time>
            </trkpt>
            <trkpt lat="39.222820" lon="-6.159714">
                <ele>615.000000</ele>
                <time>2011-12-26T04:02:12.430+01:00</time>
            </trkpt>
            <trkpt lat="39.222770" lon="-6.160133">
                <ele>611.000000</ele>
                <time>2011-12-26T05:55:32.430+01:00</time>
            </trkpt>
            <trkpt lat="39.222637" lon="-6.160305">
                <ele>612.000000</ele>
                <time>2011-12-26T07:49:32.430+01:00</time>
            </trkpt>
            <trkpt lat="39.222488" lon="-6.160551">
                <ele>608.000000</ele>
                <time>2011-12-26T09:44:12.430+01:00</time>
            </trkpt>
            <trkpt lat="39.222338" lon="-6.161088">
                <ele>607.000000</ele>
                <time>2011-12-26T11:39:32.430+01:00</time>
            </trkpt>
            <trkpt lat="39.222538" lon="-6.161216">
                <ele>603.000000</ele>
                <time>2011-12-26T13:35:32.430+01:00</time>
            </trkpt>
            <trkpt lat="39.222421" lon="-6.161410">
                <ele>601.000000</ele>
                <time>2011-12-26T15:32:12.430+01:00</time>
            </trkpt>
            <trkpt lat="39.222172" lon="-6.161678">
                <ele>601.000000</ele>
                <time>2011-12-26T17:29:32.430+01:00</time>
            </trkpt>
            <trkpt lat="39.222031" lon="-6.161957">
                <ele>601.000000</ele>
                <time>2011-12-26T19:27:32.430+01:00</time>
            </trkpt>
            <trkpt lat="39.222130" lon="-6.162214">
                <ele>598.000000</ele>
                <time>2011-12-26T21:26:12.430+01:00</time>
            </trkpt>
            <trkpt lat="39.222122" lon="-6.162375">
                <ele>597.000000</ele>
                <time>2011-12-26T23:25:32.430+01:00</time>
            </trkpt>
            <trkpt lat="39.221947" lon="-6.162697">
                <ele>594.000000</ele>
                <time>2011-12-27T01:25:32.430+01:00</time>
            </trkpt>
            <trkpt lat="39.221781" lon="-6.163191">
                <ele>590.000000</ele>
                <time>2011-12-27T03:26:12.430+01:00</time>
            </trkpt>
            <trkpt lat="39.221673" lon="-6.163813">
                <ele>580.000000</ele>
                <time>2011-12-27T05:27:32.430+01:00</time>
            </trkpt>
            <trkpt lat="39.221773" lon="-6.164124">
                <ele>576.000000</ele>
                <time>2011-12-27T07:29:32.430+01:00</time>
            </trkpt>
            <trkpt lat="39.221507" lon="-6.164124">
                <ele>574.000000</ele>
                <time>2011-12-27T09:32:12.430+01:00</time>
            </trkpt>
            <trkpt lat="39.221199" lon="-6.164092">
                <ele>574.000000</ele>
                <time>2011-12-27T11:35:32.430+01:00</time>
            </trkpt>
            <trkpt lat="39.221033" lon="-6.164382">
                <ele>571.000000</ele>
                <time>2011-12-27T13:39:32.430+01:00</time>
            </trkpt>
            <trkpt lat="39.220817" lon="-6.164789">
                <ele>570.000000</ele>
                <time>2011-12-27T15:44:12.430+01:00</time>
            </trkpt>
            <trkpt lat="39.220618" lon="-6.165133">
                <ele>569.000000</ele>
                <time>2011-12-27T17:49:32.430+01:00</time>
            </trkpt>
            <trkpt lat="39.220160" lon="-6.165572">
                <ele>560.000000</ele>
                <time>2011-12-27T19:55:32.430+01:00</time>
            </trkpt>
            <trkpt lat="39.220019" lon="-6.165862">
                <ele>555.000000</ele>
                <time>2011-12-27T22:02:12.430+01:00</time>
            </trkpt>
            <trkpt lat="39.219853" lon="-6.166044">
                <ele>550.000000</ele>
                <time>2011-12-28T00:09:32.430+01:00</time>
            </trkpt>
            <trkpt lat="39.219454" lon="-6.166302">
                <ele>544.000000</ele>
                <time>2011-12-28T02:17:32.430+01:00</time>
            </trkpt>
            <trkpt lat="39.219138" lon="-6.166441">
                <ele>545.000000</ele>
                <time>2011-12-28T04:26:12.430+01:00</time>
            </trkpt>
            <trkpt lat="39.218847" lon="-6.166549">
                <ele>541.000000</ele>
                <time>2011-12-28T06:35:32.430+01:00</time>
            </trkpt>
            <trkpt lat="39.218664" lon="-6.167064">
                <ele>538.000000</ele>
                <time>2011-12-28T08:45:32.430+01:00</time>
            </trkpt>
            <trkpt lat="39.218448" lon="-6.167439">
                <ele>532.000000</ele>
                <time>2011-12-28T10:56:12.430+01:00</time>
            </trkpt>
            <trkpt lat="39.218332" lon="-6.167697">
                <ele>526.000000</ele>
                <time>2011-12-28T13:07:32.430+01:00</time>
            </trkpt>
            <trkpt lat="39.218315" lon="-6.168008">
                <ele>522.000000</ele>
                <time>2011-12-28T15:19:32.430+01:00</time>
            </trkpt>
            <trkpt lat="39.218257" lon="-6.168351">
                <ele>518.000000</ele>
                <time>2011-12-28T17:32:12.430+01:00</time>
            </trkpt>
            <trkpt lat="39.218274" lon="-6.168619">
                <ele>515.000000</ele>
                <time>2011-12-28T19:45:32.430+01:00</time>
            </trkpt>
            <trkpt lat="39.217933" lon="-6.168941">
                <ele>518.000000</ele>
                <time>2011-12-28T21:59:32.430+01:00</time>
            </trkpt>
            <trkpt lat="39.217650" lon="-6.169145">
                <ele>518.000000</ele>
                <time>2011-12-29T00:14:12.430+01:00</time>
            </trkpt>
            <trkpt lat="39.217467" lon="-6.169317">
                <ele>516.000000</ele>
                <time>2011-12-29T02:29:32.430+01:00</time>
            </trkpt>
            <trkpt lat="39.217293" lon="-6.169596">
                <ele>513.000000</ele>
                <time>2011-12-29T04:45:32.430+01:00</time>
            </trkpt>
            <trkpt lat="39.216944" lon="-6.169896">
                <ele>506.000000</ele>
                <time>2011-12-29T07:02:12.430+01:00</time>
            </trkpt>
            <trkpt lat="39.216603" lon="-6.169918">
                <ele>503.000000</ele>
                <time>2011-12-29T09:19:32.430+01:00</time>
            </trkpt>
            <trkpt lat="39.216312" lon="-6.169842">
                <ele>503.000000</ele>
                <time>2011-12-29T11:37:32.430+01:00</time>
            </trkpt>
            <trkpt lat="39.216229" lon="-6.169585">
                <ele>498.000000</ele>
                <time>2011-12-29T13:56:12.430+01:00</time>
            </trkpt>
            <trkpt lat="39.216104" lon="-6.169285">
                <ele>504.000000</ele>
                <time>2011-12-29T16:15:32.430+01:00</time>
            </trkpt>
            <trkpt lat="39.215755" lon="-6.169188">
                <ele>497.000000</ele>
                <time>2011-12-29T18:35:32.430+01:00</time>
            </trkpt>
            <trkpt lat="39.215472" lon="-6.169209">
                <ele>489.000000</ele>
                <time>2011-12-29T20:56:12.430+01:00</time>
            </trkpt>
            <trkpt lat="39.215323" lon="-6.169327">
                <ele>478.000000</ele>
                <time>2011-12-29T23:17:32.430+01:00</time>
            </trkpt>
            <trkpt lat="39.215256" lon="-6.168995">
                <ele>486.000000</ele>
                <time>2011-12-30T01:39:32.430+01:00</time>
            </trkpt>
            <trkpt lat="39.214999" lon="-6.168941">
                <ele>480.000000</ele>
                <time>2011-12-30T04:02:12.430+01:00</time>
            </trkpt>
            <trkpt lat="39.214741" lon="-6.168941">
                <ele>477.000000</ele>
                <time>2011-12-30T06:25:32.430+01:00</time>
            </trkpt>
            <trkpt lat="39.214500" lon="-6.169027">
                <ele>477.000000</ele>
                <time>2011-12-30T08:49:32.430+01:00</time>
            </trkpt>
            <trkpt lat="39.214259" lon="-6.169252">
                <ele>473.000000</ele>
                <time>2011-12-30T11:14:12.430+01:00</time>
            </trkpt>
            <trkpt lat="39.213976" lon="-6.169617">
                <ele>465.000000</ele>
                <time>2011-12-30T13:39:32.430+01:00</time>
            </trkpt>
            <trkpt lat="39.213777" lon="-6.169724">
                <ele>465.000000</ele>
                <time>2011-12-30T16:05:32.430+01:00</time>
            </trkpt>
            <trkpt lat="39.213477" lon="-6.169800">
                <ele>468.000000</ele>
                <time>2011-12-30T18:32:12.430+01:00</time>
            </trkpt>
            <trkpt lat="39.213161" lon="-6.169971">
                <ele>466.000000</ele>
                <time>2011-12-30T20:59:32.430+01:00</time>
            </trkpt>
            <trkpt lat="39.212871" lon="-6.170111">
                <ele>466.000000</ele>
                <time>2011-12-30T23:27:32.430+01:00</time>
            </trkpt>
            <trkpt lat="39.212405" lon="-6.170475">
                <ele>456.000000</ele>
                <time>2011-12-31T01:56:12.430+01:00</time>
            </trkpt>
            <trkpt lat="39.212122" lon="-6.170475">
                <ele>456.000000</ele>
                <time>2011-12-31T04:25:32.430+01:00</time>
            </trkpt>
            <trkpt lat="39.211773" lon="-6.170658">
                <ele>455.000000</ele>
                <time>2011-12-31T06:55:32.430+01:00</time>
            </trkpt>
            <trkpt lat="39.211524" lon="-6.170840">
                <ele>451.000000</ele>
                <time>2011-12-31T09:26:12.430+01:00</time>
            </trkpt>
            <trkpt lat="39.211225" lon="-6.170958">
                <ele>451.000000</ele>
                <time>2011-12-31T11:57:32.430+01:00</time>
            </trkpt>
            <trkpt lat="39.210851" lon="-6.170969">
                <ele>451.000000</ele>
                <time>2011-12-31T14:29:32.430+01:00</time>
            </trkpt>
            <trkpt lat="39.210526" lon="-6.170990">
                <ele>449.000000</ele>
                <time>2011-12-31T17:02:12.430+01:00</time>
            </trkpt>
            <trkpt lat="39.210402" lon="-6.171076">
                <ele>449.000000</ele>
                <time>2011-12-31T19:35:32.430+01:00</time>
            </trkpt>
            <trkpt lat="39.210086" lon="-6.171173">
                <ele>448.000000</ele>
                <time>2011-12-31T22:09:32.430+01:00</time>
            </trkpt>
            <trkpt lat="39.209770" lon="-6.171452">
                <ele>443.000000</ele>
                <time>2012-01-01T00:44:12.430+01:00</time>
            </trkpt>
            <trkpt lat="39.209520" lon="-6.171387">
                <ele>442.000000</ele>
                <time>2012-01-01T03:19:32.430+01:00</time>
            </trkpt>
            <trkpt lat="39.208980" lon="-6.171312">
                <ele>440.000000</ele>
                <time>2012-01-01T05:55:32.430+01:00</time>
            </trkpt>
            <trkpt lat="39.208639" lon="-6.171495">
                <ele>440.000000</ele>
                <time>2012-01-01T08:32:12.430+01:00</time>
            </trkpt>
            <trkpt lat="39.208315" lon="-6.171892">
                <ele>434.000000</ele>
                <time>2012-01-01T11:09:32.430+01:00</time>
            </trkpt>
            <trkpt lat="39.208041" lon="-6.172192">
                <ele>431.000000</ele>
                <time>2012-01-01T13:47:32.430+01:00</time>
            </trkpt>
            <trkpt lat="39.207625" lon="-6.172493">
                <ele>429.000000</ele>
                <time>2012-01-01T16:26:12.430+01:00</time>
            </trkpt>
            <trkpt lat="39.207376" lon="-6.172686">
                <ele>427.000000</ele>
                <time>2012-01-01T19:05:32.430+01:00</time>
            </trkpt>
            <trkpt lat="39.206893" lon="-6.172954">
                <ele>426.000000</ele>
                <time>2012-01-01T21:45:32.430+01:00</time>
            </trkpt>
            <trkpt lat="39.206611" lon="-6.173179">
                <ele>426.000000</ele>
                <time>2012-01-02T00:26:12.430+01:00</time>
            </trkpt>
            <trkpt lat="39.206237" lon="-6.173168">
                <ele>424.000000</ele>
                <time>2012-01-02T03:07:32.430+01:00</time>
            </trkpt>
            <trkpt lat="39.205547" lon="-6.173286">
                <ele>421.000000</ele>
                <time>2012-01-02T05:49:32.430+01:00</time>
            </trkpt>
            <trkpt lat="39.205106" lon="-6.173404">
                <ele>418.000000</ele>
                <time>2012-01-02T08:32:12.430+01:00</time>
            </trkpt>
            <trkpt lat="39.204915" lon="-6.173340">
                <ele>418.000000</ele>
                <time>2012-01-02T11:15:32.430+01:00</time>
            </trkpt>
            <trkpt lat="39.204491" lon="-6.173168">
                <ele>415.000000</ele>
                <time>2012-01-02T13:59:32.430+01:00</time>
            </trkpt>
            <trkpt lat="39.204250" lon="-6.172975">
                <ele>413.000000</ele>
                <time>2012-01-02T16:44:12.430+01:00</time>
            </trkpt>
            <trkpt lat="39.203776" lon="-6.172686">
                <ele>414.000000</ele>
                <time>2012-01-02T19:29:32.430+01:00</time>
            </trkpt>
            <trkpt lat="39.203460" lon="-6.172632">
                <ele>415.000000</ele>
                <time>2012-01-02T22:15:32.430+01:00</time>
            </trkpt>
            <trkpt lat="39.203152" lon="-6.172600">
                <ele>415.000000</ele>
                <time>2012-01-03T01:02:12.430+01:00</time>
            </trkpt>
            <trkpt lat="39.203019" lon="-6.172482">
                <ele>415.000000</ele>
                <time>2012-01-03T03:49:32.430+01:00</time>
            </trkpt>
            <trkpt lat="39.202795" lon="-6.172460">
                <ele>415.000000</ele>
                <time>2012-01-03T06:37:32.430+01:00</time>
            </trkpt>
            <trkpt lat="39.202537" lon="-6.172310">
                <ele>416.000000</ele>
                <time>2012-01-03T09:26:12.430+01:00</time>
            </trkpt>
            <trkpt lat="39.202105" lon="-6.172267">
                <ele>416.000000</ele>
                <time>2012-01-03T12:15:32.430+01:00</time>
            </trkpt>
            <trkpt lat="39.201830" lon="-6.172214">
                <ele>417.000000</ele>
                <time>2012-01-03T15:05:32.430+01:00</time>
            </trkpt>
            <trkpt lat="39.201581" lon="-6.171774">
                <ele>419.000000</ele>
                <time>2012-01-03T17:56:12.430+01:00</time>
            </trkpt>
            <trkpt lat="39.201356" lon="-6.171645">
                <ele>415.000000</ele>
                <time>2012-01-03T20:47:32.430+01:00</time>
            </trkpt>
            <trkpt lat="39.201124" lon="-6.171817">
                <ele>407.000000</ele>
                <time>2012-01-03T23:39:32.430+01:00</time>
            </trkpt>
            <trkpt lat="39.200966" lon="-6.171913">
                <ele>401.000000</ele>
                <time>2012-01-04T02:32:12.430+01:00</time>
            </trkpt>
            <trkpt lat="39.200716" lon="-6.171913">
                <ele>401.000000</ele>
                <time>2012-01-04T05:25:32.430+01:00</time>
            </trkpt>
            <trkpt lat="39.200533" lon="-6.171720">
                <ele>395.000000</ele>
                <time>2012-01-04T08:19:32.430+01:00</time>
            </trkpt>
            <trkpt lat="39.200276" lon="-6.171387">
                <ele>395.000000</ele>
                <time>2012-01-04T11:14:12.430+01:00</time>
            </trkpt>
            <trkpt lat="39.200018" lon="-6.171173">
                <ele>397.000000</ele>
                <time>2012-01-04T14:09:32.430+01:00</time>
            </trkpt>
            <trkpt lat="39.199893" lon="-6.171012">
                <ele>397.000000</ele>
                <time>2012-01-04T17:05:32.430+01:00</time>
            </trkpt>
            <trkpt lat="39.199735" lon="-6.170819">
                <ele>402.000000</ele>
                <time>2012-01-04T20:02:12.430+01:00</time>
            </trkpt>
            <trkpt lat="39.199569" lon="-6.170626">
                <ele>405.000000</ele>
                <time>2012-01-04T22:59:32.430+01:00</time>
            </trkpt>
            <trkpt lat="39.199577" lon="-6.170422">
                <ele>405.000000</ele>
                <time>2012-01-05T01:57:32.430+01:00</time>
            </trkpt>
            <trkpt lat="39.199419" lon="-6.170229">
                <ele>409.000000</ele>
                <time>2012-01-05T04:56:12.430+01:00</time>
            </trkpt>
            <trkpt lat="39.199128" lon="-6.170143">
                <ele>407.000000</ele>
                <time>2012-01-05T07:55:32.430+01:00</time>
            </trkpt>
            <trkpt lat="39.198904" lon="-6.170014">
                <ele>408.000000</ele>
                <time>2012-01-05T10:55:32.430+01:00</time>
            </trkpt>
            <trkpt lat="39.198737" lon="-6.169842">
                <ele>410.000000</ele>
                <time>2012-01-05T13:56:12.430+01:00</time>
            </trkpt>
            <trkpt lat="39.198621" lon="-6.169564">
                <ele>412.000000</ele>
                <time>2012-01-05T16:57:32.430+01:00</time>
            </trkpt>
            <trkpt lat="39.198388" lon="-6.169499">
                <ele>412.000000</ele>
                <time>2012-01-05T19:59:32.430+01:00</time>
            </trkpt>
            <trkpt lat="39.198272" lon="-6.169081">
                <ele>414.000000</ele>
                <time>2012-01-05T23:02:12.430+01:00</time>
            </trkpt>
            <trkpt lat="39.198106" lon="-6.168920">
                <ele>415.000000</ele>
                <time>2012-01-06T02:05:32.430+01:00</time>
            </trkpt>
            <trkpt lat="39.197856" lon="-6.168952">
                <ele>414.000000</ele>
                <time>2012-01-06T05:09:32.430+01:00</time>
            </trkpt>
            <trkpt lat="39.197266" lon="-6.169059">
                <ele>409.000000</ele>
                <time>2012-01-06T08:14:12.430+01:00</time>
            </trkpt>
            <trkpt lat="39.196933" lon="-6.168973">
                <ele>410.000000</ele>
                <time>2012-01-06T11:19:32.430+01:00</time>
            </trkpt>
            <trkpt lat="39.196692" lon="-6.168931">
                <ele>409.000000</ele>
                <time>2012-01-06T14:25:32.430+01:00</time>
            </trkpt>
            <trkpt lat="39.196418" lon="-6.169006">
                <ele>407.000000</ele>
                <time>2012-01-06T17:32:12.430+01:00</time>
            </trkpt>
            <trkpt lat="39.196243" lon="-6.169091">
                <ele>400.000000</ele>
                <time>2012-01-06T20:39:32.430+01:00</time>
            </trkpt>
            <trkpt lat="39.196044" lon="-6.169049">
                <ele>400.000000</ele>
                <time>2012-01-06T23:47:32.430+01:00</time>
            </trkpt>
            <trkpt lat="39.195777" lon="-6.169167">
                <ele>397.000000</ele>
                <time>2012-01-07T02:56:12.430+01:00</time>
            </trkpt>
            <trkpt lat="39.195486" lon="-6.169327">
                <ele>389.000000</ele>
                <time>2012-01-07T06:05:32.430+01:00</time>
            </trkpt>
            <trkpt lat="39.195279" lon="-6.169381">
                <ele>388.000000</ele>
                <time>2012-01-07T09:15:32.430+01:00</time>
            </trkpt>
            <trkpt lat="39.194904" lon="-6.169231">
                <ele>390.000000</ele>
                <time>2012-01-07T12:26:12.430+01:00</time>
            </trkpt>
            <trkpt lat="39.194713" lon="-6.169360">
                <ele>387.000000</ele>
                <time>2012-01-07T15:37:32.430+01:00</time>
            </trkpt>
            <trkpt lat="39.194281" lon="-6.169499">
                <ele>387.000000</ele>
                <time>2012-01-07T18:49:32.430+01:00</time>
            </trkpt>
            <trkpt lat="39.193749" lon="-6.169510">
                <ele>388.000000</ele>
                <time>2012-01-07T22:02:12.430+01:00</time>
            </trkpt>
            <trkpt lat="39.193433" lon="-6.169424">
                <ele>389.000000</ele>
                <time>2012-01-08T01:15:32.430+01:00</time>
            </trkpt>
            <trkpt lat="39.192950" lon="-6.169252">
                <ele>391.000000</ele>
                <time>2012-01-08T04:29:32.430+01:00</time>
            </trkpt>
            <trkpt lat="39.192318" lon="-6.169295">
                <ele>390.000000</ele>
                <time>2012-01-08T07:44:12.430+01:00</time>
            </trkpt>
            <trkpt lat="39.191878" lon="-6.169188">
                <ele>389.000000</ele>
                <time>2012-01-08T10:59:32.430+01:00</time>
            </trkpt>
            <trkpt lat="39.191354" lon="-6.169091">
                <ele>387.000000</ele>
                <time>2012-01-08T14:15:32.430+01:00</time>
            </trkpt>
            <trkpt lat="39.190980" lon="-6.169156">
                <ele>386.000000</ele>
                <time>2012-01-08T17:32:12.430+01:00</time>
            </trkpt>
            <trkpt lat="39.190356" lon="-6.169574">
                <ele>381.000000</ele>
                <time>2012-01-08T20:49:32.430+01:00</time>
            </trkpt>
            <trkpt lat="39.188917" lon="-6.168072">
                <ele>377.000000</ele>
                <time>2012-01-09T00:07:32.430+01:00</time>
            </trkpt>
            <trkpt lat="39.188643" lon="-6.167418">
                <ele>377.000000</ele>
                <time>2012-01-09T03:26:12.430+01:00</time>
            </trkpt>
            <trkpt lat="39.188219" lon="-6.166270">
                <ele>377.000000</ele>
                <time>2012-01-09T06:45:32.430+01:00</time>
            </trkpt>
            <trkpt lat="39.187703" lon="-6.165433">
                <ele>379.000000</ele>
                <time>2012-01-09T10:05:32.430+01:00</time>
            </trkpt>
            <trkpt lat="39.187354" lon="-6.164907">
                <ele>385.000000</ele>
                <time>2012-01-09T13:26:12.430+01:00</time>
            </trkpt>
            <trkpt lat="39.186988" lon="-6.163459">
                <ele>394.000000</ele>
                <time>2012-01-09T16:47:32.430+01:00</time>
            </trkpt>
            <trkpt lat="39.186539" lon="-6.162729">
                <ele>396.000000</ele>
                <time>2012-01-09T20:09:32.430+01:00</time>
            </trkpt>
            <trkpt lat="39.186315" lon="-6.162246">
                <ele>396.000000</ele>
                <time>2012-01-09T23:32:12.430+01:00</time>
            </trkpt>
            <trkpt lat="39.185516" lon="-6.162311">
                <ele>391.000000</ele>
                <time>2012-01-10T02:55:32.430+01:00</time>
            </trkpt>
        </trkseg>
    </trk>
</gpx>